createdAt,value
2022-09-11T00:02:01.775Z,12.85
2022-09-11T00:04:28.224Z,12.57
2022-09-11T00:06:54.532Z,12.27
2022-09-11T00:09:21.008Z,12.25
2022-09-11T00:11:47.331Z,11.43
2022-09-11T00:14:14.622Z,12.73
2022-09-11T00:16:44.795Z,11.67
2022-09-11T00:19:19.855Z,12.15
2022-09-11T00:21:47.356Z,11.85
2022-09-11T00:24:13.739Z,11.07
2022-09-11T00:26:42.268Z,11.38
2022-09-11T00:29:09.307Z,11.67
2022-09-11T00:31:35.721Z,11.10
2022-09-11T00:34:02.122Z,11.98
2022-09-11T00:36:34.988Z,12.38
2022-09-11T00:39:01.352Z,11.85
2022-09-11T00:41:36.622Z,10.87
2022-09-11T00:44:28.147Z,11.48
2022-09-11T00:46:58.170Z,11.30
2022-09-11T00:49:44.471Z,10.10
2022-09-11T00:52:23.578Z,10.55
2022-09-11T00:55:04.264Z,8.90
2022-09-11T00:57:36.577Z,8.63
2022-09-11T01:00:05.482Z,10.88
2022-09-11T01:02:34.393Z,10.52
2022-09-11T01:05:01.025Z,11.20
2022-09-11T01:07:29.963Z,11.97
2022-09-11T01:09:57.179Z,9.93
2022-09-11T01:12:57.521Z,9.15
2022-09-11T01:15:38.462Z,10.23
2022-09-11T01:18:29.446Z,9.98
2022-09-11T01:21:15.775Z,9.00
2022-09-11T01:23:54.858Z,10.38
2022-09-11T01:27:12.528Z,11.90
2022-09-11T01:29:57.941Z,11.63
2022-09-11T01:32:35.321Z,12.32
2022-09-11T01:35:13.625Z,11.90
2022-09-11T01:38:01.001Z,12.05
2022-09-11T01:40:37.096Z,10.82
2022-09-11T01:43:08.687Z,10.63
2022-09-11T01:45:37.199Z,9.32
2022-09-11T01:48:05.530Z,9.00
2022-09-11T01:50:35.461Z,9.77
2022-09-11T01:53:05.019Z,8.95
2022-09-11T01:55:37.720Z,10.13
2022-09-11T01:58:11.044Z,8.63
2022-09-11T02:00:39.993Z,9.77
2022-09-11T02:03:17.325Z,9.55
2022-09-11T02:05:55.774Z,8.85
2022-09-11T02:08:37.354Z,9.50
2022-09-11T02:11:07.352Z,8.60
2022-09-11T02:14:10.347Z,9.47
2022-09-11T02:16:50.058Z,8.77
2022-09-11T02:19:23.926Z,8.90
2022-09-11T02:21:53.728Z,8.75
2022-09-11T02:24:22.703Z,8.23
2022-09-11T02:26:54.006Z,9.83
2022-09-11T02:29:21.102Z,7.55
2022-09-11T02:31:49.177Z,7.20
2022-09-11T02:34:17.838Z,7.93
2022-09-11T02:37:12.190Z,5.97
2022-09-11T02:40:20.657Z,5.77
2022-09-11T02:43:04.642Z,5.30
2022-09-11T02:46:19.629Z,5.15
2022-09-11T02:48:58.139Z,4.40
2022-09-11T02:51:51.040Z,3.92
2022-09-11T02:54:35.670Z,4.87
2022-09-11T02:57:10.239Z,4.75
2022-09-11T02:59:42.093Z,6.60
2022-09-11T03:02:15.771Z,5.85
2022-09-11T03:04:42.163Z,5.50
2022-09-11T03:07:09.076Z,5.47
2022-09-11T03:09:35.674Z,6.28
2022-09-11T03:12:02.929Z,6.40
2022-09-11T03:14:29.218Z,6.72
2022-09-11T03:16:56.703Z,7.20
2022-09-11T03:19:23.072Z,7.03
2022-09-11T03:21:50.952Z,6.88
2022-09-11T03:24:17.407Z,7.20
2022-09-11T03:26:44.159Z,5.43
2022-09-11T03:29:10.478Z,6.82
2022-09-11T03:31:39.255Z,7.80
2022-09-11T03:34:06.399Z,7.20
2022-09-11T03:36:34.312Z,6.97
2022-09-11T03:39:01.842Z,5.72
2022-09-11T03:41:28.347Z,4.85
2022-09-11T03:43:54.679Z,5.23
2022-09-11T03:46:20.987Z,5.88
2022-09-11T03:48:47.323Z,5.28
2022-09-11T03:51:17.470Z,4.85
2022-09-11T03:53:44.313Z,4.93
2022-09-11T03:56:11.798Z,5.40
2022-09-11T03:58:38.313Z,4.55
2022-09-11T04:01:10.964Z,5.65
2022-09-11T04:03:37.322Z,6.00
2022-09-11T04:06:03.776Z,5.72
2022-09-11T04:08:33.790Z,5.07
2022-09-11T04:11:03.690Z,6.03
2022-09-11T04:13:31.580Z,6.15
2022-09-11T04:16:04.498Z,6.20
2022-09-11T04:18:32.562Z,5.88
2022-09-11T04:20:58.869Z,3.97
2022-09-11T04:23:25.373Z,4.75
2022-09-11T04:25:53.217Z,3.80
2022-09-11T04:28:19.682Z,3.38
2022-09-11T04:30:46.008Z,3.88
2022-09-11T04:33:12.367Z,3.60
2022-09-11T04:35:40.297Z,3.33
2022-09-11T04:38:07.844Z,4.10
2022-09-11T04:40:35.231Z,4.22
2022-09-11T04:43:02.327Z,3.25
2022-09-11T04:45:33.357Z,3.47
2022-09-11T04:48:00.787Z,3.25
2022-09-11T04:50:28.855Z,4.40
2022-09-11T04:52:55.281Z,4.70
2022-09-11T04:55:21.630Z,3.65
2022-09-11T04:57:47.930Z,3.80
2022-09-11T05:00:14.996Z,3.58
2022-09-11T05:02:41.307Z,3.72
2022-09-11T05:05:09.194Z,3.90
2022-09-11T05:07:36.418Z,3.85
2022-09-11T05:10:03.069Z,5.63
2022-09-11T05:12:31.757Z,5.25
2022-09-11T05:14:58.986Z,4.13
2022-09-11T05:17:25.302Z,2.88
2022-09-11T05:19:51.624Z,3.03
2022-09-11T05:22:17.951Z,2.60
2022-09-11T05:24:44.271Z,4.82
2022-09-11T05:27:11.559Z,5.20
2022-09-11T05:29:38.530Z,5.28
2022-09-11T05:32:05.951Z,6.78
2022-09-11T05:34:32.270Z,6.63
2022-09-11T05:36:58.671Z,6.55
2022-09-11T05:39:25.206Z,6.50
2022-09-11T05:41:52.315Z,5.40
2022-09-11T05:44:19.532Z,7.88
2022-09-11T05:46:46.081Z,7.63
2022-09-11T05:49:12.831Z,7.57
2022-09-11T05:51:41.507Z,7.72
2022-09-11T05:54:08.099Z,8.77
2022-09-11T05:56:34.723Z,8.75
2022-09-11T05:59:02.413Z,8.70
2022-09-11T06:01:28.868Z,7.57
2022-09-11T06:03:55.507Z,7.57
2022-09-11T06:06:22.816Z,7.63
2022-09-11T06:08:51.381Z,8.25
2022-09-11T06:11:19.578Z,8.97
2022-09-11T06:13:47.177Z,8.18
2022-09-11T06:16:18.230Z,8.10
2022-09-11T06:18:48.973Z,7.82
2022-09-11T06:21:19.107Z,8.27
2022-09-11T06:23:50.442Z,7.57
2022-09-11T06:26:19.563Z,8.93
2022-09-11T06:28:47.311Z,8.15
2022-09-11T06:31:17.042Z,7.55
2022-09-11T06:33:44.196Z,7.30
2022-09-11T06:36:14.345Z,7.60
2022-09-11T06:38:40.955Z,8.32
2022-09-11T06:41:12.323Z,8.18
2022-09-11T06:43:38.710Z,7.38
2022-09-11T06:46:13.397Z,8.10
2022-09-11T06:48:44.493Z,7.63
2022-09-11T06:51:13.140Z,8.27
2022-09-11T06:53:41.022Z,7.32
2022-09-11T06:56:09.963Z,7.60
2022-09-11T06:58:36.267Z,8.82
2022-09-11T07:01:03.891Z,7.73
2022-09-11T07:03:30.663Z,7.18
2022-09-11T07:05:56.983Z,8.85
2022-09-11T07:08:25.091Z,9.82
2022-09-11T07:10:51.626Z,8.38
2022-09-11T07:13:18.049Z,8.70
2022-09-11T07:15:44.389Z,7.63
2022-09-11T07:18:11.415Z,8.02
2022-09-11T07:20:39.985Z,8.02
2022-09-11T07:23:06.307Z,8.30
2022-09-11T07:25:32.654Z,8.93
2022-09-11T07:27:59.047Z,8.43
2022-09-11T07:30:26.078Z,7.75
2022-09-11T07:32:52.407Z,9.15
2022-09-11T07:35:21.622Z,9.00
2022-09-11T07:37:50.815Z,8.67
2022-09-11T07:40:17.516Z,9.85
2022-09-11T07:42:43.914Z,8.75
2022-09-11T07:45:10.643Z,8.35
2022-09-11T07:47:38.449Z,9.45
2022-09-11T07:50:05.637Z,8.97
2022-09-11T07:52:32.116Z,9.20
2022-09-11T07:54:58.416Z,9.77
2022-09-11T07:57:24.783Z,10.35
2022-09-11T07:59:51.565Z,10.57
2022-09-11T08:02:18.039Z,9.80
2022-09-11T08:04:44.862Z,9.77
2022-09-11T08:07:11.683Z,10.55
2022-09-11T08:09:38.020Z,10.27
2022-09-11T08:12:04.685Z,10.02
2022-09-11T08:14:31.220Z,10.33
2022-09-11T08:16:58.523Z,9.93
2022-09-11T08:19:24.912Z,10.32
2022-09-11T08:21:51.539Z,9.30
2022-09-11T08:24:18.470Z,8.50
2022-09-11T08:26:48.719Z,9.87
2022-09-11T08:29:15.471Z,9.30
2022-09-11T08:31:41.814Z,8.63
2022-09-11T08:34:09.807Z,9.10
2022-09-11T08:36:36.199Z,9.35
2022-09-11T08:39:03.352Z,10.17
2022-09-11T08:41:49.142Z,8.93
2022-09-11T08:44:44.480Z,9.25
2022-09-11T08:47:19.072Z,9.05
2022-09-11T08:49:55.163Z,9.07
2022-09-11T08:52:21.757Z,9.27
2022-09-11T08:54:48.217Z,9.13
2022-09-11T08:57:54.518Z,8.50
2022-09-11T09:00:23.319Z,7.22
2022-09-11T09:03:12.491Z,5.60
2022-09-11T09:05:46.799Z,3.97
2022-09-11T09:08:38.191Z,4.18
2022-09-11T09:11:09.459Z,3.83
2022-09-11T09:14:09.723Z,3.55
2022-09-11T09:16:53.593Z,2.10
2022-09-11T09:19:29.592Z,1.37
2022-09-11T09:22:24.639Z,1.40
2022-09-11T09:24:55.588Z,2.45
2022-09-11T09:27:30.284Z,2.30
2022-09-11T09:30:01.806Z,1.58
2022-09-11T09:32:39.878Z,1.90
2022-09-11T09:35:16.955Z,2.22
2022-09-11T09:37:43.930Z,1.98
2022-09-11T09:40:10.973Z,2.13
2022-09-11T09:42:58.221Z,2.28
2022-09-11T09:45:52.115Z,2.10
2022-09-11T09:48:18.482Z,2.60
2022-09-11T09:50:44.916Z,2.05
2022-09-11T09:53:27.263Z,1.73
2022-09-11T09:55:56.331Z,2.00
2022-09-11T09:58:27.454Z,2.40
2022-09-11T10:00:53.763Z,1.50
2022-09-11T10:03:23.091Z,1.38
2022-09-11T10:05:53.336Z,1.55
2022-09-11T10:08:36.050Z,1.80
2022-09-11T10:11:12.156Z,1.30
2022-09-11T10:13:42.413Z,1.17
2022-09-11T10:16:26.582Z,1.23
2022-09-11T10:18:54.650Z,1.50
2022-09-11T10:21:24.588Z,1.20
2022-09-11T10:23:55.606Z,1.00
2022-09-11T10:26:31.307Z,1.48
2022-09-11T10:29:19.558Z,1.40
2022-09-11T10:31:50.781Z,1.38
2022-09-11T10:34:20.041Z,1.40
2022-09-11T10:37:02.732Z,1.20
2022-09-11T10:39:32.354Z,1.15
2022-09-11T10:42:11.254Z,1.38
2022-09-11T10:44:43.195Z,1.10
2022-09-11T10:47:17.275Z,1.33
2022-09-11T10:49:44.861Z,0.83
2022-09-11T10:52:11.108Z,1.30
2022-09-11T10:55:01.833Z,2.00
2022-09-11T10:57:45.356Z,1.65
2022-09-11T11:00:30.245Z,1.20
2022-09-11T11:03:12.482Z,1.70
2022-09-11T11:06:04.044Z,2.00
2022-09-11T11:09:13.655Z,1.42
2022-09-11T11:12:06.673Z,1.95
2022-09-11T11:14:54.724Z,1.42
2022-09-11T11:18:03.172Z,1.43
2022-09-11T11:20:50.236Z,1.48
2022-09-11T11:23:22.188Z,0.93
2022-09-11T11:26:11.577Z,1.40
2022-09-11T11:28:50.082Z,1.00
2022-09-11T11:31:46.442Z,0.87
2022-09-11T11:34:30.419Z,1.45
2022-09-11T11:37:15.056Z,1.13
2022-09-11T11:40:00.102Z,0.98
2022-09-11T11:42:44.172Z,1.15
2022-09-11T11:45:21.145Z,0.90
2022-09-11T11:47:49.020Z,0.68
2022-09-11T11:50:31.938Z,0.60
2022-09-11T11:53:40.102Z,1.10
2022-09-11T11:56:33.160Z,0.60
2022-09-11T11:59:22.717Z,0.90
2022-09-11T12:02:03.228Z,0.95
2022-09-11T12:04:56.767Z,0.65
2022-09-11T12:07:30.035Z,0.63
2022-09-11T12:09:58.818Z,0.60
2022-09-11T12:12:29.416Z,0.90
2022-09-11T12:15:08.349Z,0.68
2022-09-11T12:17:36.874Z,0.52
2022-09-11T12:20:12.208Z,0.90
2022-09-11T12:22:42.651Z,0.77
2022-09-11T12:25:21.065Z,0.57
2022-09-11T12:27:48.562Z,1.10
2022-09-11T12:30:17.575Z,0.73
2022-09-11T12:32:52.204Z,0.90
2022-09-11T12:35:29.465Z,0.40
2022-09-11T12:38:08.918Z,0.80
2022-09-11T12:40:59.781Z,0.80
2022-09-11T12:43:35.205Z,0.80
2022-09-11T12:46:11.436Z,0.50
2022-09-11T12:48:42.679Z,0.50
2022-09-11T12:51:23.699Z,0.70
2022-09-11T12:53:53.614Z,0.93
2022-09-11T12:56:23.335Z,1.05
2022-09-11T12:58:57.253Z,0.90
2022-09-11T13:01:30.403Z,0.85
2022-09-11T13:04:03.180Z,1.53
2022-09-11T13:06:45.767Z,0.55
2022-09-11T13:09:29.513Z,0.65
2022-09-11T13:12:17.120Z,1.23
2022-09-11T13:14:50.971Z,0.88
2022-09-11T13:17:34.165Z,1.10
2022-09-11T13:20:03.308Z,0.90
2022-09-11T13:22:34.551Z,0.60
2022-09-11T13:25:18.597Z,1.20
2022-09-11T13:27:51.423Z,0.90
2022-09-11T13:30:21.566Z,0.90
2022-09-11T13:33:00.069Z,0.70
2022-09-11T13:35:28.571Z,0.80
2022-09-11T13:38:05.958Z,0.50
2022-09-11T13:40:47.462Z,0.60
2022-09-11T13:43:20.724Z,0.60
2022-09-11T13:45:47.507Z,0.60
2022-09-11T13:48:22.752Z,1.63
2022-09-11T13:50:50.812Z,0.60
2022-09-11T13:53:20.139Z,0.50
2022-09-11T13:55:48.680Z,0.40
2022-09-11T13:58:24.587Z,0.70
2022-09-11T14:00:55.160Z,0.60
2022-09-11T14:03:28.019Z,0.60
2022-09-11T14:05:57.462Z,0.50
2022-09-11T14:08:37.913Z,0.60
2022-09-11T14:11:11.469Z,0.55
2022-09-11T14:13:53.280Z,0.80
2022-09-11T14:16:36.210Z,0.47
2022-09-11T14:19:13.077Z,0.60
2022-09-11T14:21:46.467Z,0.73
2022-09-11T14:24:32.514Z,0.57
2022-09-11T14:27:04.257Z,0.88
2022-09-11T14:29:32.891Z,0.55
2022-09-11T14:32:39.979Z,0.82
2022-09-11T14:35:09.728Z,0.90
2022-09-11T14:37:45.618Z,1.10
2022-09-11T14:40:17.104Z,0.50
2022-09-11T14:42:45.200Z,0.90
2022-09-11T14:45:18.893Z,0.60
2022-09-11T14:47:45.290Z,0.70
2022-09-11T14:50:12.517Z,0.80
2022-09-11T14:52:41.091Z,0.75
2022-09-11T14:55:13.103Z,0.60
2022-09-11T14:57:39.514Z,0.65
2022-09-11T15:00:06.482Z,0.43
2022-09-11T15:02:32.770Z,0.40
2022-09-11T15:04:59.270Z,0.40
2022-09-11T15:07:27.301Z,0.50
2022-09-11T15:09:54.763Z,0.68
2022-09-11T15:12:21.888Z,0.40
2022-09-11T15:14:58.221Z,0.40
2022-09-11T15:17:27.027Z,0.50
2022-09-11T15:19:53.634Z,0.47
2022-09-11T15:22:20.195Z,0.50
2022-09-11T15:24:46.995Z,0.63
2022-09-11T15:27:14.887Z,0.57
2022-09-11T15:29:42.459Z,0.40
2022-09-11T15:32:09.698Z,0.50
2022-09-11T15:34:35.986Z,0.77
2022-09-11T15:37:02.515Z,0.57
2022-09-11T15:39:28.941Z,0.35
2022-09-11T15:41:56.273Z,0.40
2022-09-11T15:44:25.362Z,0.70
2022-09-11T15:46:53.436Z,0.50
2022-09-11T15:49:22.251Z,0.57
2022-09-11T15:51:49.566Z,0.35
2022-09-11T15:54:16.226Z,0.70
2022-09-11T15:56:43.211Z,0.60
2022-09-11T15:59:11.673Z,0.40
2022-09-11T16:01:38.429Z,0.40
2022-09-11T16:04:08.891Z,0.50
2022-09-11T16:06:38.610Z,0.63
2022-09-11T16:09:07.792Z,0.50
2022-09-11T16:11:36.467Z,0.75
2022-09-11T16:14:03.198Z,0.50
2022-09-11T16:16:29.536Z,0.80
2022-09-11T16:18:58.365Z,0.55
2022-09-11T16:21:27.044Z,0.43
2022-09-11T16:23:59.212Z,0.50
2022-09-11T16:26:29.007Z,0.50
2022-09-11T16:28:55.394Z,0.65
2022-09-11T16:31:21.720Z,0.60
2022-09-11T16:33:48.583Z,0.40
2022-09-11T16:36:18.583Z,0.32
2022-09-11T16:38:45.924Z,0.70
2022-09-11T16:41:18.746Z,0.45
2022-09-11T16:43:47.773Z,0.60
2022-09-11T16:46:17.129Z,0.40
2022-09-11T16:48:44.123Z,0.40
2022-09-11T16:51:11.457Z,0.60
2022-09-11T16:53:38.186Z,0.60
2022-09-11T16:56:10.384Z,0.50
2022-09-11T16:58:37.158Z,0.50
2022-09-11T17:01:09.202Z,0.50
2022-09-11T17:03:41.260Z,0.40
2022-09-11T17:06:08.508Z,0.60
2022-09-11T17:08:36.928Z,0.55
2022-09-11T17:11:04.387Z,0.70
2022-09-11T17:13:31.238Z,0.50
2022-09-11T17:16:02.215Z,0.60
2022-09-11T17:18:28.987Z,0.50
2022-09-11T17:20:57.128Z,0.50
2022-09-11T17:23:23.597Z,0.60
2022-09-11T17:25:50.911Z,0.70
2022-09-11T17:28:19.934Z,0.70
2022-09-11T17:30:46.779Z,0.85
2022-09-11T17:33:14.317Z,0.65
2022-09-11T17:35:42.359Z,0.73
2022-09-11T17:38:09.467Z,0.60
2022-09-11T17:40:36.513Z,0.83
2022-09-11T17:43:04.363Z,0.70
2022-09-11T17:45:31.124Z,0.63
2022-09-11T17:47:57.603Z,0.75
2022-09-11T17:50:24.153Z,0.70
2022-09-11T17:52:50.706Z,0.90
2022-09-11T17:55:17.103Z,0.77
2022-09-11T17:57:45.413Z,1.23
2022-09-11T18:00:12.918Z,1.00
2022-09-11T18:02:40.102Z,0.98
2022-09-11T18:05:07.109Z,1.13
2022-09-11T18:07:33.428Z,1.20
2022-09-11T18:09:59.854Z,1.20
2022-09-11T18:12:28.197Z,1.30
2022-09-11T18:14:55.934Z,2.13
2022-09-11T18:17:22.587Z,1.20
2022-09-11T18:19:50.011Z,1.00
2022-09-11T18:22:19.859Z,1.85
2022-09-11T18:24:46.328Z,1.70
2022-09-11T18:27:12.634Z,1.75
2022-09-11T18:29:40.526Z,1.90
2022-09-11T18:32:06.895Z,2.28
2022-09-11T18:34:33.283Z,3.42
2022-09-11T18:37:00.475Z,6.90
2022-09-11T18:39:26.893Z,6.93
2022-09-11T18:41:53.296Z,5.20
2022-09-11T18:44:21.582Z,3.85
2022-09-11T18:46:51.703Z,3.95
2022-09-11T18:49:18.027Z,4.20
2022-09-11T18:51:44.363Z,3.58
2022-09-11T18:54:15.931Z,2.73
2022-09-11T18:56:42.412Z,3.60
2022-09-11T18:59:10.002Z,3.28
2022-09-11T19:01:36.496Z,3.88
2022-09-11T19:04:07.323Z,3.25
2022-09-11T19:06:34.254Z,3.17
2022-09-11T19:09:01.662Z,3.10
2022-09-11T19:11:29.817Z,3.17
2022-09-11T19:14:02.297Z,2.50
2022-09-11T19:16:29.332Z,2.85
2022-09-11T19:18:55.919Z,3.07
2022-09-11T19:21:23.924Z,2.80
2022-09-11T19:23:55.707Z,2.55
2022-09-11T19:26:24.223Z,2.63
2022-09-11T19:28:51.213Z,2.42
2022-09-11T19:31:24.868Z,3.27
2022-09-11T19:33:52.017Z,3.33
2022-09-11T19:36:21.673Z,3.30
2022-09-11T19:38:49.673Z,3.72
2022-09-11T19:41:21.008Z,3.83
2022-09-11T19:43:48.236Z,3.83
2022-09-11T19:46:19.879Z,3.80
2022-09-11T19:48:46.699Z,3.05
2022-09-11T19:51:14.239Z,3.05
2022-09-11T19:53:41.630Z,4.00
2022-09-11T19:56:09.617Z,3.63
2022-09-11T19:58:36.151Z,4.47
2022-09-11T20:01:09.023Z,4.75
2022-09-11T20:03:38.676Z,3.85
2022-09-11T20:06:06.466Z,4.50
2022-09-11T20:08:33.767Z,4.83
2022-09-11T20:11:06.575Z,4.40
2022-09-11T20:13:34.380Z,5.18
2022-09-11T20:16:06.194Z,4.32
2022-09-11T20:18:32.815Z,4.20
2022-09-11T20:21:07.431Z,4.87
2022-09-11T20:23:34.345Z,5.57
2022-09-11T20:26:07.707Z,6.35
2022-09-11T20:28:34.119Z,6.50
2022-09-11T20:31:00.625Z,6.32
2022-09-11T20:33:27.246Z,5.73
2022-09-11T20:35:53.593Z,6.43
2022-09-11T20:38:20.176Z,6.55
2022-09-11T20:40:46.523Z,6.38
2022-09-11T20:43:12.911Z,7.25
2022-09-11T20:45:39.227Z,5.43
2022-09-11T20:48:05.533Z,5.07
2022-09-11T20:50:32.592Z,4.97
2022-09-11T20:53:00.443Z,5.97
2022-09-11T20:55:27.191Z,5.82
2022-09-11T20:57:53.515Z,6.20
2022-09-11T21:00:20.329Z,6.78
2022-09-11T21:02:46.635Z,7.38
2022-09-11T21:05:12.971Z,6.15
2022-09-11T21:07:39.318Z,6.90
2022-09-11T21:10:06.387Z,6.83
2022-09-11T21:12:32.702Z,5.93
2022-09-11T21:14:59.018Z,6.03
2022-09-11T21:17:25.327Z,7.05
2022-09-11T21:19:56.746Z,7.43
2022-09-11T21:22:23.661Z,8.30
2022-09-11T21:24:49.989Z,7.57
2022-09-11T21:27:16.323Z,7.88
2022-09-11T21:29:42.649Z,7.35
2022-09-11T21:32:08.961Z,7.32
2022-09-11T21:34:35.284Z,7.60
2022-09-11T21:37:01.587Z,7.05
2022-09-11T21:39:27.927Z,6.68
2022-09-11T21:41:54.218Z,7.28
2022-09-11T21:44:20.537Z,8.05
2022-09-11T21:46:46.864Z,7.67
2022-09-11T21:49:13.403Z,7.90
2022-09-11T21:51:40.638Z,8.20
2022-09-11T21:54:06.947Z,7.20
2022-09-11T21:56:33.704Z,7.60
2022-09-11T21:59:00.191Z,8.07
2022-09-11T22:01:27.577Z,7.13
2022-09-11T22:03:54.624Z,7.03
2022-09-11T22:06:24.591Z,6.45
2022-09-11T22:08:51.940Z,7.70
2022-09-11T22:11:18.303Z,6.83
2022-09-11T22:13:44.929Z,6.18
2022-09-11T22:16:13.306Z,5.80
2022-09-11T22:18:40.887Z,7.40
2022-09-11T22:21:09.192Z,8.50
2022-09-11T22:23:36.229Z,8.30
2022-09-11T22:26:07.132Z,8.10
2022-09-11T22:28:33.913Z,7.13
2022-09-11T22:31:00.606Z,6.10
2022-09-11T22:33:26.964Z,6.68
2022-09-11T22:35:53.278Z,7.37
2022-09-11T22:38:19.571Z,6.28
2022-09-11T22:40:51.954Z,6.13
2022-09-11T22:43:18.247Z,5.47
2022-09-11T22:45:50.609Z,5.93
2022-09-11T22:48:17.500Z,6.00
2022-09-11T22:50:43.890Z,6.53
2022-09-11T22:53:10.315Z,6.63
2022-09-11T22:55:36.633Z,6.43
2022-09-11T22:58:02.950Z,7.35
2022-09-11T23:00:29.287Z,7.60
2022-09-11T23:02:55.615Z,8.25
2022-09-11T23:05:40.273Z,8.70
2022-09-11T23:08:06.590Z,8.23
2022-09-11T23:10:32.878Z,8.82
2022-09-11T23:12:59.221Z,8.20
2022-09-11T23:15:25.509Z,8.30
2022-09-11T23:17:51.812Z,8.02
2022-09-11T23:20:18.718Z,8.65
2022-09-11T23:22:45.058Z,8.00
2022-09-11T23:25:11.417Z,7.47
2022-09-11T23:27:37.941Z,7.43
2022-09-11T23:30:04.750Z,8.20
2022-09-11T23:32:31.045Z,7.57
2022-09-11T23:34:57.586Z,8.00
2022-09-11T23:37:23.899Z,9.37
2022-09-11T23:39:50.778Z,8.18
2022-09-11T23:42:17.151Z,7.93
2022-09-11T23:44:43.487Z,7.70
2022-09-11T23:47:09.807Z,8.25
2022-09-11T23:49:36.648Z,8.17
2022-09-11T23:52:04.721Z,8.75
2022-09-11T23:54:31.066Z,7.45
2022-09-11T23:56:57.860Z,7.25
2022-09-11T23:59:24.170Z,8.40
